sensor_id;sensor_type;location;lat;lon;timestamp;pressure;altitude;pressure_sealevel;temperature;humidity
21359;BME280;13506;50.852;20.632;2023-04-04T00:02:09;98887.72;;;-0.59;67.12
21359;BME280;13506;50.852;20.632;2023-04-04T00:04:37;98883.50;;;-0.63;67.70
21359;BME280;13506;50.852;20.632;2023-04-04T00:07:06;98881.84;;;-0.66;68.15
21359;BME280;13506;50.852;20.632;2023-04-04T00:09:34;98887.00;;;-0.68;67.38
21359;BME280;13506;50.852;20.632;2023-04-04T00:12:02;98884.53;;;-0.74;68.72
21359;BME280;13506;50.852;20.632;2023-04-04T00:14:31;98884.47;;;-0.71;67.43
21359;BME280;13506;50.852;20.632;2023-04-04T00:16:59;98880.38;;;-0.81;68.20
21359;BME280;13506;50.852;20.632;2023-04-04T00:19:27;98876.94;;;-0.80;67.88
21359;BME280;13506;50.852;20.632;2023-04-04T00:21:55;98877.28;;;-1.00;69.03
21359;BME280;13506;50.852;20.632;2023-04-04T00:24:24;98876.41;;;-0.99;69.24
21359;BME280;13506;50.852;20.632;2023-04-04T00:26:52;98877.00;;;-0.83;68.76
21359;BME280;13506;50.852;20.632;2023-04-04T00:29:20;98878.66;;;-0.80;68.52
21359;BME280;13506;50.852;20.632;2023-04-04T00:31:48;98873.41;;;-0.74;67.80
21359;BME280;13506;50.852;20.632;2023-04-04T00:34:16;98874.31;;;-0.77;68.89
21359;BME280;13506;50.852;20.632;2023-04-04T00:36:44;98871.56;;;-0.68;67.59
21359;BME280;13506;50.852;20.632;2023-04-04T00:39:14;98877.66;;;-0.72;69.13
21359;BME280;13506;50.852;20.632;2023-04-04T00:41:44;98866.38;;;-0.65;68.48
21359;BME280;13506;50.852;20.632;2023-04-04T00:44:12;98877.50;;;-0.64;68.51
21359;BME280;13506;50.852;20.632;2023-04-04T00:46:40;98875.88;;;-0.68;69.49
21359;BME280;13506;50.852;20.632;2023-04-04T00:49:08;98882.59;;;-0.61;69.13
21359;BME280;13506;50.852;20.632;2023-04-04T00:51:37;98864.59;;;-0.61;69.48
21359;BME280;13506;50.852;20.632;2023-04-04T00:54:05;98879.31;;;-0.69;69.67
21359;BME280;13506;50.852;20.632;2023-04-04T00:56:36;98877.56;;;-0.69;69.59
21359;BME280;13506;50.852;20.632;2023-04-04T00:59:06;98878.59;;;-0.77;70.67
21359;BME280;13506;50.852;20.632;2023-04-04T01:01:35;98886.09;;;-0.65;69.38
21359;BME280;13506;50.852;20.632;2023-04-04T01:04:04;98889.44;;;-0.60;68.24
21359;BME280;13506;50.852;20.632;2023-04-04T01:06:32;98882.66;;;-0.64;68.83
21359;BME280;13506;50.852;20.632;2023-04-04T01:09:00;98885.06;;;-0.56;68.94
21359;BME280;13506;50.852;20.632;2023-04-04T01:11:29;98879.88;;;-0.53;69.37
21359;BME280;13506;50.852;20.632;2023-04-04T01:13:57;98878.13;;;-0.51;69.28
21359;BME280;13506;50.852;20.632;2023-04-04T01:16:27;98875.25;;;-0.81;71.77
21359;BME280;13506;50.852;20.632;2023-04-04T01:18:56;98874.97;;;-0.66;70.00
21359;BME280;13506;50.852;20.632;2023-04-04T01:21:24;98876.66;;;-0.65;69.55
21359;BME280;13506;50.852;20.632;2023-04-04T01:23:58;98870.66;;;-0.65;70.63
21359;BME280;13506;50.852;20.632;2023-04-04T01:26:34;98869.75;;;-0.62;69.77
21359;BME280;13506;50.852;20.632;2023-04-04T01:29:04;98882.06;;;-0.80;69.85
21359;BME280;13506;50.852;20.632;2023-04-04T01:31:36;98878.25;;;-0.59;70.19
21359;BME280;13506;50.852;20.632;2023-04-04T01:34:19;98886.69;;;-0.51;69.34
21359;BME280;13506;50.852;20.632;2023-04-04T01:37:00;98881.41;;;-0.43;69.77
21359;BME280;13506;50.852;20.632;2023-04-04T01:39:38;98874.44;;;-0.38;68.08
21359;BME280;13506;50.852;20.632;2023-04-04T01:42:11;98870.34;;;-0.47;69.22
21359;BME280;13506;50.852;20.632;2023-04-04T01:44:40;98866.09;;;-0.49;69.77
21359;BME280;13506;50.852;20.632;2023-04-04T01:47:08;98873.00;;;-0.51;69.26
21359;BME280;13506;50.852;20.632;2023-04-04T01:49:39;98873.94;;;-0.57;70.51
21359;BME280;13506;50.852;20.632;2023-04-04T01:52:09;98879.78;;;-0.47;69.60
21359;BME280;13506;50.852;20.632;2023-04-04T01:54:37;98875.28;;;-0.37;68.55
21359;BME280;13506;50.852;20.632;2023-04-04T01:57:06;98880.09;;;-0.66;70.17
21359;BME280;13506;50.852;20.632;2023-04-04T01:59:35;98877.25;;;-0.50;68.80
21359;BME280;13506;50.852;20.632;2023-04-04T02:02:04;98883.28;;;-0.51;68.75
21359;BME280;13506;50.852;20.632;2023-04-04T02:04:32;98871.38;;;-0.57;70.27
21359;BME280;13506;50.852;20.632;2023-04-04T02:07:00;98878.25;;;-0.57;70.27
21359;BME280;13506;50.852;20.632;2023-04-04T02:09:28;98884.13;;;-0.51;69.84
21359;BME280;13506;50.852;20.632;2023-04-04T02:11:56;98884.44;;;-0.69;68.93
21359;BME280;13506;50.852;20.632;2023-04-04T02:14:25;98886.78;;;-0.55;69.27
21359;BME280;13506;50.852;20.632;2023-04-04T02:16:55;98889.44;;;-0.61;69.08
21359;BME280;13506;50.852;20.632;2023-04-04T02:19:24;98880.84;;;-0.59;69.83
21359;BME280;13506;50.852;20.632;2023-04-04T02:21:52;98891.00;;;-0.53;68.47
21359;BME280;13506;50.852;20.632;2023-04-04T02:24:21;98881.84;;;-0.68;68.59
21359;BME280;13506;50.852;20.632;2023-04-04T02:26:50;98889.25;;;-0.51;68.58
21359;BME280;13506;50.852;20.632;2023-04-04T02:29:17;98885.03;;;-0.53;69.24
21359;BME280;13506;50.852;20.632;2023-04-04T02:31:46;98889.34;;;-0.55;69.54
21359;BME280;13506;50.852;20.632;2023-04-04T02:34:15;98887.72;;;-0.61;69.56
21359;BME280;13506;50.852;20.632;2023-04-04T02:36:44;98883.09;;;-0.89;71.56
21359;BME280;13506;50.852;20.632;2023-04-04T02:39:12;98889.78;;;-0.80;71.07
21359;BME280;13506;50.852;20.632;2023-04-04T02:41:40;98888.84;;;-0.76;70.65
21359;BME280;13506;50.852;20.632;2023-04-04T02:44:08;98898.09;;;-0.67;70.32
21359;BME280;13506;50.852;20.632;2023-04-04T02:46:38;98883.63;;;-0.71;70.81
21359;BME280;13506;50.852;20.632;2023-04-04T02:49:10;98887.91;;;-0.72;70.73
21359;BME280;13506;50.852;20.632;2023-04-04T02:51:47;98883.66;;;-0.73;70.19
21359;BME280;13506;50.852;20.632;2023-04-04T02:54:15;98886.59;;;-0.94;71.53
21359;BME280;13506;50.852;20.632;2023-04-04T02:56:45;98878.47;;;-0.71;70.90
21359;BME280;13506;50.852;20.632;2023-04-04T02:59:13;98867.44;;;-0.75;71.38
21359;BME280;13506;50.852;20.632;2023-04-04T03:01:42;98868.38;;;-0.80;71.13
21359;BME280;13506;50.852;20.632;2023-04-04T03:04:10;98878.84;;;-0.90;71.79
21359;BME280;13506;50.852;20.632;2023-04-04T03:06:39;98875.19;;;-0.78;71.05
21359;BME280;13506;50.852;20.632;2023-04-04T03:09:10;98877.75;;;-0.78;71.27
21359;BME280;13506;50.852;20.632;2023-04-04T03:11:39;98870.88;;;-0.76;70.93
21359;BME280;13506;50.852;20.632;2023-04-04T03:14:09;98874.63;;;-0.95;70.63
21359;BME280;13506;50.852;20.632;2023-04-04T03:16:39;98869.53;;;-0.98;70.69
21359;BME280;13506;50.852;20.632;2023-04-04T03:19:07;98872.81;;;-0.90;71.76
21359;BME280;13506;50.852;20.632;2023-04-04T03:21:35;98882.06;;;-0.80;70.67
21359;BME280;13506;50.852;20.632;2023-04-04T03:24:03;98878.56;;;-0.76;70.89
21359;BME280;13506;50.852;20.632;2023-04-04T03:26:33;98880.16;;;-0.69;70.88
21359;BME280;13506;50.852;20.632;2023-04-04T03:29:01;98869.84;;;-0.66;70.28
21359;BME280;13506;50.852;20.632;2023-04-04T03:31:30;98876.59;;;-0.61;70.85
21359;BME280;13506;50.852;20.632;2023-04-04T03:33:58;98867.16;;;-0.59;69.86
21359;BME280;13506;50.852;20.632;2023-04-04T03:36:28;98870.13;;;-0.81;70.91
21359;BME280;13506;50.852;20.632;2023-04-04T03:38:56;98873.09;;;-0.57;69.65
21359;BME280;13506;50.852;20.632;2023-04-04T03:41:24;98871.47;;;-0.61;70.42
21359;BME280;13506;50.852;20.632;2023-04-04T03:43:53;98865.53;;;-0.65;70.34
21359;BME280;13506;50.852;20.632;2023-04-04T03:46:21;98859.72;;;-0.75;70.61
21359;BME280;13506;50.852;20.632;2023-04-04T03:48:50;98870.00;;;-0.75;70.78
21359;BME280;13506;50.852;20.632;2023-04-04T03:51:22;98866.31;;;-0.60;70.11
21359;BME280;13506;50.852;20.632;2023-04-04T03:53:50;98863.75;;;-0.60;70.45
21359;BME280;13506;50.852;20.632;2023-04-04T03:56:19;98862.00;;;-0.59;70.28
21359;BME280;13506;50.852;20.632;2023-04-04T03:58:47;98857.09;;;-0.72;71.06
21359;BME280;13506;50.852;20.632;2023-04-04T04:01:20;98874.28;;;-0.75;70.42
21359;BME280;13506;50.852;20.632;2023-04-04T04:03:48;98862.25;;;-0.73;70.52
21359;BME280;13506;50.852;20.632;2023-04-04T04:06:18;98859.84;;;-0.81;70.90
21359;BME280;13506;50.852;20.632;2023-04-04T04:08:45;98854.72;;;-0.82;70.84
21359;BME280;13506;50.852;20.632;2023-04-04T04:11:14;98854.75;;;-0.86;71.09
21359;BME280;13506;50.852;20.632;2023-04-04T04:13:42;98858.94;;;-0.80;70.54
21359;BME280;13506;50.852;20.632;2023-04-04T04:16:10;98844.53;;;-0.87;70.87
21359;BME280;13506;50.852;20.632;2023-04-04T04:18:39;98857.28;;;-0.81;71.27
21359;BME280;13506;50.852;20.632;2023-04-04T04:21:12;98854.00;;;-0.91;71.67
21359;BME280;13506;50.852;20.632;2023-04-04T04:23:42;98853.09;;;-0.87;71.44
21359;BME280;13506;50.852;20.632;2023-04-04T04:26:10;98852.44;;;-0.99;72.26
21359;BME280;13506;50.852;20.632;2023-04-04T04:28:38;98849.25;;;-1.14;73.27
21359;BME280;13506;50.852;20.632;2023-04-04T04:31:11;98850.06;;;-1.09;72.52
21359;BME280;13506;50.852;20.632;2023-04-04T04:33:48;98849.13;;;-1.04;72.81
21359;BME280;13506;50.852;20.632;2023-04-04T04:36:19;98856.03;;;-1.08;72.52
21359;BME280;13506;50.852;20.632;2023-04-04T04:38:59;98857.69;;;-1.04;72.79
21359;BME280;13506;50.852;20.632;2023-04-04T04:41:31;98855.22;;;-1.12;73.70
21359;BME280;13506;50.852;20.632;2023-04-04T04:44:00;98853.59;;;-1.17;73.58
21359;BME280;13506;50.852;20.632;2023-04-04T04:46:29;98854.38;;;-1.12;72.86
21359;BME280;13506;50.852;20.632;2023-04-04T04:48:59;98847.06;;;-1.35;73.66
21359;BME280;13506;50.852;20.632;2023-04-04T04:51:30;98854.69;;;-1.31;74.15
21359;BME280;13506;50.852;20.632;2023-04-04T04:53:59;98849.16;;;-1.62;76.55
21359;BME280;13506;50.852;20.632;2023-04-04T04:56:29;98844.59;;;-1.43;76.11
21359;BME280;13506;50.852;20.632;2023-04-04T04:59:05;98853.19;;;-1.46;75.52
21359;BME280;13506;50.852;20.632;2023-04-04T05:01:35;98857.41;;;-1.41;75.62
21359;BME280;13506;50.852;20.632;2023-04-04T05:04:05;98862.44;;;-1.35;75.56
21359;BME280;13506;50.852;20.632;2023-04-04T05:06:53;98861.47;;;-1.27;74.92
21359;BME280;13506;50.852;20.632;2023-04-04T05:09:22;98856.31;;;-1.25;76.05
21359;BME280;13506;50.852;20.632;2023-04-04T05:11:50;98860.47;;;-1.18;75.90
21359;BME280;13506;50.852;20.632;2023-04-04T05:14:22;98852.75;;;-1.16;74.82
21359;BME280;13506;50.852;20.632;2023-04-04T05:16:55;98864.63;;;-1.11;74.32
21359;BME280;13506;50.852;20.632;2023-04-04T05:19:29;98861.97;;;-1.04;73.78
21359;BME280;13506;50.852;20.632;2023-04-04T05:21:58;98858.63;;;-1.11;73.94
21359;BME280;13506;50.852;20.632;2023-04-04T05:24:40;98859.78;;;-1.29;75.00
21359;BME280;13506;50.852;20.632;2023-04-04T05:27:11;98870.00;;;-1.26;75.56
21359;BME280;13506;50.852;20.632;2023-04-04T05:29:44;98876.66;;;-1.14;75.09
21359;BME280;13506;50.852;20.632;2023-04-04T05:32:13;98874.28;;;-1.27;73.99
21359;BME280;13506;50.852;20.632;2023-04-04T05:34:45;98867.59;;;-1.37;74.83
21359;BME280;13506;50.852;20.632;2023-04-04T05:37:17;98873.97;;;-1.07;74.15
21359;BME280;13506;50.852;20.632;2023-04-04T05:39:48;98878.94;;;-0.96;74.28
21359;BME280;13506;50.852;20.632;2023-04-04T05:42:18;98868.63;;;-0.94;73.03
21359;BME280;13506;50.852;20.632;2023-04-04T05:44:50;98868.63;;;-0.94;73.99
21359;BME280;13506;50.852;20.632;2023-04-04T05:47:19;98880.63;;;-0.96;74.45
21359;BME280;13506;50.852;20.632;2023-04-04T05:49:50;98881.13;;;-0.74;73.37
21359;BME280;13506;50.852;20.632;2023-04-04T05:52:19;98885.78;;;-0.50;73.09
21359;BME280;13506;50.852;20.632;2023-04-04T05:54:48;98882.06;;;-0.33;72.32
21359;BME280;13506;50.852;20.632;2023-04-04T05:57:24;98878.56;;;-0.31;71.03
21359;BME280;13506;50.852;20.632;2023-04-04T05:59:56;98884.97;;;-0.07;71.32
21359;BME280;13506;50.852;20.632;2023-04-04T06:02:24;98877.94;;;0.02;70.20
21359;BME280;13506;50.852;20.632;2023-04-04T06:04:58;98885.59;;;0.05;69.13
21359;BME280;13506;50.852;20.632;2023-04-04T06:07:33;98876.84;;;0.12;68.93
21359;BME280;13506;50.852;20.632;2023-04-04T06:10:00;98891.19;;;0.24;68.58
21359;BME280;13506;50.852;20.632;2023-04-04T06:12:30;98873.47;;;0.50;68.20
21359;BME280;13506;50.852;20.632;2023-04-04T06:14:58;98878.34;;;0.61;67.32
21359;BME280;13506;50.852;20.632;2023-04-04T06:17:26;98875.50;;;1.08;68.92
21359;BME280;13506;50.852;20.632;2023-04-04T06:19:54;98866.00;;;1.43;66.48
21359;BME280;13506;50.852;20.632;2023-04-04T06:22:24;98858.00;;;1.83;67.80
21359;BME280;13506;50.852;20.632;2023-04-04T06:24:54;98866.81;;;2.35;65.69
21359;BME280;13506;50.852;20.632;2023-04-04T06:27:25;98863.84;;;2.76;63.22
21359;BME280;13506;50.852;20.632;2023-04-04T06:29:53;98866.47;;;3.01;61.36
21359;BME280;13506;50.852;20.632;2023-04-04T06:32:23;98870.50;;;3.10;58.92
21359;BME280;13506;50.852;20.632;2023-04-04T06:34:53;98867.47;;;2.97;58.13
21359;BME280;13506;50.852;20.632;2023-04-04T06:37:35;98862.41;;;2.94;57.47
21359;BME280;13506;50.852;20.632;2023-04-04T06:40:11;98868.41;;;2.94;56.83
21359;BME280;13506;50.852;20.632;2023-04-04T06:42:47;98863.25;;;2.94;58.34
21359;BME280;13506;50.852;20.632;2023-04-04T06:45:17;98850.09;;;3.02;57.10
21359;BME280;13506;50.852;20.632;2023-04-04T06:47:45;98862.88;;;3.32;56.90
21359;BME280;13506;50.852;20.632;2023-04-04T06:50:15;98859.56;;;3.52;56.07
21359;BME280;13506;50.852;20.632;2023-04-04T06:52:46;98857.13;;;3.72;55.70
21359;BME280;13506;50.852;20.632;2023-04-04T06:55:15;98860.59;;;3.95;55.91
21359;BME280;13506;50.852;20.632;2023-04-04T06:57:44;98864.63;;;4.03;54.52
21359;BME280;13506;50.852;20.632;2023-04-04T07:00:13;98871.47;;;4.04;53.81
21359;BME280;13506;50.852;20.632;2023-04-04T07:02:41;98861.91;;;4.07;54.60
21359;BME280;13506;50.852;20.632;2023-04-04T07:05:10;98863.41;;;3.65;53.08
21359;BME280;13506;50.852;20.632;2023-04-04T07:07:39;98869.66;;;3.59;53.43
21359;BME280;13506;50.852;20.632;2023-04-04T07:10:09;98871.03;;;3.70;55.36
21359;BME280;13506;50.852;20.632;2023-04-04T07:12:37;98862.41;;;3.93;54.36
21359;BME280;13506;50.852;20.632;2023-04-04T07:15:06;98859.09;;;4.35;56.09
21359;BME280;13506;50.852;20.632;2023-04-04T07:17:36;98858.41;;;4.31;53.37
21359;BME280;13506;50.852;20.632;2023-04-04T07:20:07;98863.03;;;4.45;51.85
21359;BME280;13506;50.852;20.632;2023-04-04T07:22:37;98858.16;;;4.59;53.09
21359;BME280;13506;50.852;20.632;2023-04-04T07:25:08;98854.03;;;4.76;53.10
21359;BME280;13506;50.852;20.632;2023-04-04T07:27:36;98847.56;;;5.08;52.78
21359;BME280;13506;50.852;20.632;2023-04-04T07:30:07;98861.75;;;5.40;52.90
21359;BME280;13506;50.852;20.632;2023-04-04T07:32:35;98853.19;;;5.59;51.95
21359;BME280;13506;50.852;20.632;2023-04-04T07:35:03;98843.56;;;5.61;49.31
21359;BME280;13506;50.852;20.632;2023-04-04T07:37:32;98855.06;;;5.55;50.33
21359;BME280;13506;50.852;20.632;2023-04-04T07:40:04;98864.09;;;5.46;50.28
21359;BME280;13506;50.852;20.632;2023-04-04T07:42:34;98868.38;;;5.48;50.69
21359;BME280;13506;50.852;20.632;2023-04-04T07:45:03;98854.22;;;5.55;50.94
21359;BME280;13506;50.852;20.632;2023-04-04T07:47:31;98851.00;;;5.50;49.01
21359;BME280;13506;50.852;20.632;2023-04-04T07:49:59;98859.44;;;5.74;49.08
21359;BME280;13506;50.852;20.632;2023-04-04T07:52:28;98853.41;;;5.73;48.80
21359;BME280;13506;50.852;20.632;2023-04-04T07:54:56;98861.84;;;6.16;51.26
21359;BME280;13506;50.852;20.632;2023-04-04T07:57:26;98856.75;;;6.51;49.06
21359;BME280;13506;50.852;20.632;2023-04-04T07:59:55;98848.47;;;6.62;50.08
21359;BME280;13506;50.852;20.632;2023-04-04T08:02:23;98847.22;;;7.05;48.02
21359;BME280;13506;50.852;20.632;2023-04-04T08:04:51;98842.47;;;7.14;45.88
21359;BME280;13506;50.852;20.632;2023-04-04T08:07:19;98845.91;;;7.49;48.39
21359;BME280;13506;50.852;20.632;2023-04-04T08:09:47;98852.28;;;7.77;47.99
21359;BME280;13506;50.852;20.632;2023-04-04T08:12:15;98842.28;;;8.01;45.19
21359;BME280;13506;50.852;20.632;2023-04-04T08:14:43;98829.88;;;8.06;43.02
21359;BME280;13506;50.852;20.632;2023-04-04T08:17:13;98837.53;;;8.41;43.04
21359;BME280;13506;50.852;20.632;2023-04-04T08:19:44;98835.44;;;8.47;43.11
21359;BME280;13506;50.852;20.632;2023-04-04T08:22:12;98831.56;;;8.55;42.38
21359;BME280;13506;50.852;20.632;2023-04-04T08:24:40;98830.28;;;8.78;43.73
21359;BME280;13506;50.852;20.632;2023-04-04T08:27:08;98830.97;;;8.65;41.08
21359;BME280;13506;50.852;20.632;2023-04-04T08:29:36;98828.28;;;8.97;41.32
21359;BME280;13506;50.852;20.632;2023-04-04T08:32:05;98828.34;;;8.96;40.11
21359;BME280;13506;50.852;20.632;2023-04-04T08:34:34;98822.59;;;8.75;39.63
21359;BME280;13506;50.852;20.632;2023-04-04T08:37:02;98832.81;;;8.93;39.65
21359;BME280;13506;50.852;20.632;2023-04-04T08:39:30;98828.00;;;8.71;39.84
21359;BME280;13506;50.852;20.632;2023-04-04T08:42:02;98818.53;;;8.85;40.68
21359;BME280;13506;50.852;20.632;2023-04-04T08:44:32;98812.13;;;8.90;39.01
21359;BME280;13506;50.852;20.632;2023-04-04T08:47:03;98819.50;;;8.68;40.33
21359;BME280;13506;50.852;20.632;2023-04-04T08:49:36;98812.31;;;8.25;39.73
21359;BME280;13506;50.852;20.632;2023-04-04T08:52:04;98807.75;;;8.13;41.03
21359;BME280;13506;50.852;20.632;2023-04-04T08:54:34;98813.22;;;8.08;40.35
21359;BME280;13506;50.852;20.632;2023-04-04T08:57:06;98806.47;;;7.88;39.72
21359;BME280;13506;50.852;20.632;2023-04-04T08:59:35;98809.63;;;7.95;40.02
21359;BME280;13506;50.852;20.632;2023-04-04T09:02:14;98814.25;;;7.57;38.38
21359;BME280;13506;50.852;20.632;2023-04-04T09:04:45;98805.19;;;7.30;36.22
21359;BME280;13506;50.852;20.632;2023-04-04T09:07:15;98816.75;;;7.25;37.35
21359;BME280;13506;50.852;20.632;2023-04-04T09:09:44;98810.66;;;7.26;39.55
21359;BME280;13506;50.852;20.632;2023-04-04T09:12:14;98808.31;;;7.37;39.57
21359;BME280;13506;50.852;20.632;2023-04-04T09:14:43;98802.53;;;6.97;39.37
21359;BME280;13506;50.852;20.632;2023-04-04T09:17:12;98811.56;;;6.73;38.79
21359;BME280;13506;50.852;20.632;2023-04-04T09:19:40;98812.47;;;6.89;40.57
21359;BME280;13506;50.852;20.632;2023-04-04T09:22:09;98809.13;;;7.04;38.48
21359;BME280;13506;50.852;20.632;2023-04-04T09:24:39;98803.19;;;7.36;39.43
21359;BME280;13506;50.852;20.632;2023-04-04T09:27:08;98816.25;;;7.52;38.45
21359;BME280;13506;50.852;20.632;2023-04-04T09:29:37;98804.81;;;7.21;36.86
21359;BME280;13506;50.852;20.632;2023-04-04T09:32:07;98810.59;;;6.93;38.44
21359;BME280;13506;50.852;20.632;2023-04-04T09:34:36;98804.47;;;6.57;39.56
21359;BME280;13506;50.852;20.632;2023-04-04T09:37:04;98809.03;;;6.71;40.53
21359;BME280;13506;50.852;20.632;2023-04-04T09:39:34;98808.47;;;6.47;39.76
21359;BME280;13506;50.852;20.632;2023-04-04T09:42:06;98816.84;;;6.35;40.06
21359;BME280;13506;50.852;20.632;2023-04-04T09:44:35;98823.13;;;6.12;39.74
21359;BME280;13506;50.852;20.632;2023-04-04T09:47:23;98819.13;;;5.66;40.16
21359;BME280;13506;50.852;20.632;2023-04-04T09:49:51;98811.94;;;5.32;40.04
21359;BME280;13506;50.852;20.632;2023-04-04T09:52:20;98811.91;;;4.93;40.91
21359;BME280;13506;50.852;20.632;2023-04-04T09:54:59;98813.22;;;4.81;41.49
21359;BME280;13506;50.852;20.632;2023-04-04T09:57:29;98815.81;;;4.81;42.77
21359;BME280;13506;50.852;20.632;2023-04-04T09:59:57;98816.31;;;5.11;44.46
21359;BME280;13506;50.852;20.632;2023-04-04T10:02:29;98812.34;;;5.23;42.17
21359;BME280;13506;50.852;20.632;2023-04-04T10:04:57;98808.97;;;5.00;39.93
21359;BME280;13506;50.852;20.632;2023-04-04T10:07:26;98810.22;;;4.90;39.51
21359;BME280;13506;50.852;20.632;2023-04-04T10:09:59;98813.72;;;4.91;40.00
21359;BME280;13506;50.852;20.632;2023-04-04T10:12:29;98815.41;;;4.90;40.95
21359;BME280;13506;50.852;20.632;2023-04-04T10:14:56;98820.16;;;4.80;41.09
21359;BME280;13506;50.852;20.632;2023-04-04T10:17:30;98815.34;;;4.71;42.03
21359;BME280;13506;50.852;20.632;2023-04-04T10:20:00;98815.41;;;4.70;43.40
21359;BME280;13506;50.852;20.632;2023-04-04T10:22:31;98813.81;;;4.67;43.12
21359;BME280;13506;50.852;20.632;2023-04-04T10:25:01;98807.97;;;4.18;41.50
21359;BME280;13506;50.852;20.632;2023-04-04T10:27:29;98804.50;;;4.61;41.50
21359;BME280;13506;50.852;20.632;2023-04-04T10:29:58;98802.81;;;4.60;41.92
21359;BME280;13506;50.852;20.632;2023-04-04T10:32:31;98792.44;;;4.60;41.84
21359;BME280;13506;50.852;20.632;2023-04-04T10:35:03;98803.53;;;4.64;42.55
21359;BME280;13506;50.852;20.632;2023-04-04T10:37:39;98800.13;;;4.63;41.30
21359;BME280;13506;50.852;20.632;2023-04-04T10:40:15;98797.81;;;4.56;40.69
21359;BME280;13506;50.852;20.632;2023-04-04T10:42:46;98789.63;;;4.66;41.37
21359;BME280;13506;50.852;20.632;2023-04-04T10:45:16;98775.50;;;4.74;41.56
21359;BME280;13506;50.852;20.632;2023-04-04T10:47:44;98783.88;;;4.80;40.38
21359;BME280;13506;50.852;20.632;2023-04-04T10:50:13;98766.63;;;4.79;41.02
21359;BME280;13506;50.852;20.632;2023-04-04T10:52:43;98780.06;;;4.89;41.20
21359;BME280;13506;50.852;20.632;2023-04-04T10:55:13;98777.84;;;4.80;41.63
21359;BME280;13506;50.852;20.632;2023-04-04T10:57:44;98770.84;;;4.82;42.00
21359;BME280;13506;50.852;20.632;2023-04-04T11:00:14;98772.66;;;4.80;41.41
21359;BME280;13506;50.852;20.632;2023-04-04T11:02:46;98777.34;;;4.92;40.25
21359;BME280;13506;50.852;20.632;2023-04-04T11:05:18;98775.44;;;4.75;40.31
21359;BME280;13506;50.852;20.632;2023-04-04T11:07:51;98781.06;;;4.64;41.47
21359;BME280;13506;50.852;20.632;2023-04-04T11:10:26;98789.22;;;4.55;41.32
21359;BME280;13506;50.852;20.632;2023-04-04T11:12:55;98788.38;;;4.33;41.38
21359;BME280;13506;50.852;20.632;2023-04-04T11:15:45;98768.19;;;4.63;41.62
21359;BME280;13506;50.852;20.632;2023-04-04T11:18:14;98752.66;;;4.41;40.84
21359;BME280;13506;50.852;20.632;2023-04-04T11:20:42;98769.22;;;4.37;40.90
21359;BME280;13506;50.852;20.632;2023-04-04T11:23:15;98759.25;;;4.28;40.37
21359;BME280;13506;50.852;20.632;2023-04-04T11:25:53;98776.53;;;4.27;41.30
21359;BME280;13506;50.852;20.632;2023-04-04T11:28:27;98774.66;;;4.31;41.69
21359;BME280;13506;50.852;20.632;2023-04-04T11:31:26;98770.75;;;4.42;42.21
21359;BME280;13506;50.852;20.632;2023-04-04T11:33:56;98769.47;;;4.31;41.21
21359;BME280;13506;50.852;20.632;2023-04-04T11:36:51;98766.84;;;4.10;42.82
21359;BME280;13506;50.852;20.632;2023-04-04T11:39:27;98760.28;;;4.01;43.50
21359;BME280;13506;50.852;20.632;2023-04-04T11:42:00;98771.53;;;3.78;43.69
21359;BME280;13506;50.852;20.632;2023-04-04T11:44:32;98774.16;;;3.77;44.17
21359;BME280;13506;50.852;20.632;2023-04-04T11:47:02;98759.03;;;3.66;43.58
21359;BME280;13506;50.852;20.632;2023-04-04T11:49:37;98782.91;;;3.51;43.59
21359;BME280;13506;50.852;20.632;2023-04-04T11:52:07;98781.53;;;3.40;43.89
21359;BME280;13506;50.852;20.632;2023-04-04T11:54:37;98781.44;;;2.93;44.83
21359;BME280;13506;50.852;20.632;2023-04-04T11:57:09;98781.19;;;3.01;44.35
21359;BME280;13506;50.852;20.632;2023-04-04T11:59:39;98781.03;;;3.06;44.61
21359;BME280;13506;50.852;20.632;2023-04-04T12:02:08;98777.19;;;3.17;44.51
21359;BME280;13506;50.852;20.632;2023-04-04T12:04:37;98784.56;;;3.03;44.99
21359;BME280;13506;50.852;20.632;2023-04-04T12:07:06;98783.03;;;2.72;45.57
21359;BME280;13506;50.852;20.632;2023-04-04T12:09:35;98779.91;;;2.63;46.51
21359;BME280;13506;50.852;20.632;2023-04-04T12:12:06;98786.03;;;2.60;46.95
21359;BME280;13506;50.852;20.632;2023-04-04T12:14:34;98797.69;;;2.44;47.22
21359;BME280;13506;50.852;20.632;2023-04-04T12:17:02;98788.13;;;2.19;48.63
21359;BME280;13506;50.852;20.632;2023-04-04T12:19:34;98790.19;;;2.09;49.00
21359;BME280;13506;50.852;20.632;2023-04-04T12:22:03;98793.44;;;2.14;49.46
21359;BME280;13506;50.852;20.632;2023-04-04T12:24:31;98801.56;;;2.30;49.18
21359;BME280;13506;50.852;20.632;2023-04-04T12:26:59;98790.69;;;2.20;49.48
21359;BME280;13506;50.852;20.632;2023-04-04T12:29:31;98796.34;;;2.32;49.76
21359;BME280;13506;50.852;20.632;2023-04-04T12:32:02;98788.50;;;2.35;48.69
21359;BME280;13506;50.852;20.632;2023-04-04T12:34:32;98785.81;;;2.38;48.16
21359;BME280;13506;50.852;20.632;2023-04-04T12:37:02;98786.69;;;2.38;48.38
21359;BME280;13506;50.852;20.632;2023-04-04T12:39:30;98789.59;;;1.99;47.93
21359;BME280;13506;50.852;20.632;2023-04-04T12:42:01;98791.06;;;2.36;48.11
21359;BME280;13506;50.852;20.632;2023-04-04T12:44:32;98765.91;;;2.41;48.15
21359;BME280;13506;50.852;20.632;2023-04-04T12:47:01;98776.47;;;2.34;47.90
21359;BME280;13506;50.852;20.632;2023-04-04T12:49:38;98777.09;;;2.42;47.89
21359;BME280;13506;50.852;20.632;2023-04-04T12:52:16;98780.25;;;1.95;49.24
21359;BME280;13506;50.852;20.632;2023-04-04T12:54:46;98774.06;;;2.01;49.52
21359;BME280;13506;50.852;20.632;2023-04-04T12:57:18;98765.44;;;2.02;48.89
21359;BME280;13506;50.852;20.632;2023-04-04T12:59:49;98771.25;;;2.09;49.41
21359;BME280;13506;50.852;20.632;2023-04-04T13:02:18;98778.44;;;1.99;48.56
21359;BME280;13506;50.852;20.632;2023-04-04T13:04:50;98795.00;;;1.62;48.91
21359;BME280;13506;50.852;20.632;2023-04-04T13:07:21;98793.44;;;1.56;50.00
21359;BME280;13506;50.852;20.632;2023-04-04T13:09:54;98775.72;;;1.75;49.78
21359;BME280;13506;50.852;20.632;2023-04-04T13:12:22;98795.22;;;1.54;50.33